KBGM

Greater Binghamton / Edwin A Link Field Airport

Binghamton, New York, USA
METAR KBGM 160553Z AUTO 26005KT 10SM CLR 19/17 A3006 RMK AO2 SLP169 T01940167 10244 20194 52004
Observed Flight Rules
Aug-16 @ 05:53 UTC (22 minutes ago) Visual Flight Rules
Wind Visibility Clouds
260° at 5 knots 10 miles
  • Clear skies
Temperatures Readings
Current 19°C / 66°F
Dewpoint 17°C / 63°F
Humidity 88%
Altimeter 30.06" Hg
Pressure 1016.9 hPa
Elevation 490
METAR KBGM 160553Z AUTO 26005KT 10SM CLR 19/17 A3006 RMK AO2 SLP169 T01940167 10244 20194 52004
Observed Flight Rules
Aug-16 @ 05:53 UTC
(22 minutes ago)
VFR
Wind Visibility
260° at 5 knots 10 miles
Clouds
  • Clear skies
Temperature Dewpoint
19°C / 66°F 17°C / 63°F
Humidity Altimeter Pressure
88% 30.06" Hg 1016.9 hPa